createdAt,value
2022-07-28T00:01:09.623Z,98493.94
2022-07-28T00:03:36.309Z,98496.63
2022-07-28T00:06:09.455Z,98500.41
2022-07-28T00:08:49.643Z,98492.97
2022-07-28T00:11:22.742Z,98495.88
2022-07-28T00:13:56.599Z,98494.66
2022-07-28T00:16:29.493Z,98487.59
2022-07-28T00:19:02.508Z,98494.25
2022-07-28T00:21:29.485Z,98491.34
2022-07-28T00:24:02.456Z,98491.34
2022-07-28T00:26:29.219Z,98483.25
2022-07-28T00:29:02.439Z,98494.66
2022-07-28T00:31:29.180Z,98490.72
2022-07-28T00:34:02.432Z,98493.41
2022-07-28T00:36:35.455Z,98495.88
2022-07-28T00:39:09.509Z,98500.06
2022-07-28T00:41:36.619Z,98492.63
2022-07-28T00:44:13.831Z,98498.56
2022-07-28T00:46:41.220Z,98499.03
2022-07-28T00:49:14.510Z,98493.84
2022-07-28T00:51:41.555Z,98487.25
2022-07-28T00:54:15.693Z,98481.03
2022-07-28T00:56:43.398Z,98486.69
2022-07-28T00:59:16.450Z,98487.91
2022-07-28T01:01:43.401Z,98476.53
2022-07-28T01:04:16.979Z,98484.41
2022-07-28T01:07:05.561Z,98493.72
2022-07-28T01:10:14.490Z,98484.59
2022-07-28T01:12:51.315Z,98480.69
2022-07-28T01:15:41.472Z,98474.66
2022-07-28T01:18:20.532Z,98470.75
2022-07-28T01:20:59.466Z,98478.59
2022-07-28T01:23:46.263Z,98474.50
2022-07-28T01:26:45.422Z,98476.13
2022-07-28T01:29:27.192Z,98472.22
2022-07-28T01:32:17.437Z,98469.06
2022-07-28T01:34:55.962Z,98464.94
2022-07-28T01:37:35.431Z,98468.47
2022-07-28T01:40:07.254Z,98465.38
2022-07-28T01:42:47.443Z,98470.13
2022-07-28T01:45:22.440Z,98465.81
2022-07-28T01:47:57.438Z,98465.19
2022-07-28T01:50:33.606Z,98464.78
2022-07-28T01:53:08.613Z,98462.75
2022-07-28T01:55:36.391Z,98458.22
2022-07-28T01:58:11.652Z,98456.75
2022-07-28T02:00:39.342Z,98460.69
2022-07-28T02:03:14.433Z,98454.53
2022-07-28T02:05:42.500Z,98454.31
2022-07-28T02:08:23.624Z,98453.91
2022-07-28T02:11:17.205Z,98452.25
2022-07-28T02:13:52.494Z,98447.31
2022-07-28T02:16:22.957Z,98451.84
2022-07-28T02:18:57.578Z,98440.66
2022-07-28T02:21:26.043Z,98441.47
2022-07-28T02:24:00.423Z,98437.94
2022-07-28T02:26:37.995Z,98435.69
2022-07-28T02:29:33.439Z,98434.84
2022-07-28T02:32:26.830Z,98425.13
2022-07-28T02:35:12.607Z,98424.94
2022-07-28T02:37:51.598Z,98426.16
2022-07-28T02:40:28.417Z,98421.41
2022-07-28T02:42:58.428Z,98422.00
2022-07-28T02:45:34.588Z,98419.09
2022-07-28T02:48:08.122Z,98425.06
2022-07-28T02:50:41.405Z,98429.00
2022-07-28T02:53:15.694Z,98431.66
2022-07-28T02:55:53.429Z,98438.91
2022-07-28T02:58:22.689Z,98438.28
2022-07-28T03:00:51.617Z,98436.81
2022-07-28T03:03:25.401Z,98441.97
2022-07-28T03:05:52.363Z,98445.50
2022-07-28T03:08:25.410Z,98448.41
2022-07-28T03:11:20.448Z,98447.78
2022-07-28T03:13:47.123Z,98453.75
2022-07-28T03:16:20.432Z,98453.13
2022-07-28T03:18:54.443Z,98464.50
2022-07-28T03:21:21.326Z,98457.06
2022-07-28T03:23:58.421Z,98462.66
2022-07-28T03:26:44.420Z,98461.44
2022-07-28T03:29:18.407Z,98467.81
2022-07-28T03:31:54.430Z,98466.13
2022-07-28T03:34:28.416Z,98473.13
2022-07-28T03:37:09.395Z,98474.38
2022-07-28T03:39:45.238Z,98480.38
2022-07-28T03:42:19.577Z,98476.38
2022-07-28T03:44:47.723Z,98483.78
2022-07-28T03:47:22.456Z,98483.78
2022-07-28T03:49:49.498Z,98484.63
2022-07-28T03:52:17.195Z,98492.47
2022-07-28T03:54:51.410Z,98485.03
2022-07-28T03:57:18.136Z,98491.66
2022-07-28T03:59:51.409Z,98489.38
2022-07-28T04:02:18.112Z,98491.44
2022-07-28T04:04:51.418Z,98484.41
2022-07-28T04:07:18.126Z,98487.09
2022-07-28T04:10:05.423Z,98477.88
2022-07-28T04:12:32.165Z,98471.81
2022-07-28T04:14:58.966Z,98473.28
2022-07-28T04:17:32.463Z,98468.91
2022-07-28T04:19:59.111Z,98479.84
2022-07-28T04:22:32.557Z,98470.97
2022-07-28T04:25:06.569Z,98477.16
2022-07-28T04:27:43.399Z,98475.53
2022-07-28T04:30:18.950Z,98472.22
2022-07-28T04:32:54.570Z,98472.66
2022-07-28T04:35:24.184Z,98466.84
2022-07-28T04:37:58.429Z,98467.28
2022-07-28T04:40:26.806Z,98470.16
2022-07-28T04:43:00.423Z,98463.97
2022-07-28T04:45:27.415Z,98462.78
2022-07-28T04:48:01.388Z,98470.03
2022-07-28T04:50:28.161Z,98471.94
2022-07-28T04:53:01.451Z,98481.84
2022-07-28T04:55:28.252Z,98476.72
2022-07-28T04:58:01.482Z,98476.09
2022-07-28T05:00:35.593Z,98475.28
2022-07-28T05:03:10.403Z,98466.59
2022-07-28T05:05:37.131Z,98468.88
2022-07-28T05:08:03.998Z,98475.72
2022-07-28T05:10:37.404Z,98476.53
2022-07-28T05:13:11.035Z,98478.22
2022-07-28T05:15:44.425Z,98480.69
2022-07-28T05:18:11.114Z,98477.81
2022-07-28T05:20:44.399Z,98484.25
2022-07-28T05:23:19.398Z,98486.94
2022-07-28T05:25:52.385Z,98481.97
2022-07-28T05:28:25.411Z,98491.28
2022-07-28T05:30:58.413Z,98477.44
2022-07-28T05:33:30.169Z,98472.88
2022-07-28T05:36:05.415Z,98489.00
2022-07-28T05:38:32.647Z,98483.25
2022-07-28T05:41:06.390Z,98482.63
2022-07-28T05:43:35.319Z,98482.22
2022-07-28T05:46:08.430Z,98477.03
2022-07-28T05:48:35.379Z,98481.19
2022-07-28T05:51:09.422Z,98488.41
2022-07-28T05:53:36.275Z,98486.13
2022-07-28T05:56:10.571Z,98491.13
2022-07-28T05:58:37.377Z,98491.13
2022-07-28T06:01:11.421Z,98493.19
2022-07-28T06:03:42.150Z,98496.91
2022-07-28T06:06:17.094Z,98493.19
2022-07-28T06:08:54.463Z,98491.34
2022-07-28T06:11:27.537Z,98493.84
2022-07-28T06:14:00.391Z,98499.44
2022-07-28T06:16:27.927Z,98497.97
2022-07-28T06:19:01.382Z,98494.06
2022-07-28T06:21:28.191Z,98496.97
2022-07-28T06:24:01.383Z,98495.06
2022-07-28T06:26:28.374Z,98494.47
2022-07-28T06:29:01.377Z,98496.53
2022-07-28T06:31:35.419Z,98497.34
2022-07-28T06:34:02.339Z,98494.69
2022-07-28T06:36:35.537Z,98497.75
2022-07-28T06:39:02.411Z,98488.63
2022-07-28T06:41:35.394Z,98494.88
2022-07-28T06:44:02.092Z,98493.38
2022-07-28T06:46:35.427Z,98492.16
2022-07-28T06:49:03.533Z,98501.25
2022-07-28T06:51:38.518Z,98485.28
2022-07-28T06:54:10.769Z,98492.94
2022-07-28T06:56:38.215Z,98485.47
2022-07-28T06:59:11.649Z,98476.13
2022-07-28T07:01:45.381Z,98476.53
2022-07-28T07:04:12.341Z,98477.81
2022-07-28T07:06:46.459Z,98479.25
2022-07-28T07:09:19.376Z,98471.78
2022-07-28T07:11:52.779Z,98468.25
2022-07-28T07:14:26.396Z,98480.84
2022-07-28T07:17:00.393Z,98459.91
2022-07-28T07:19:27.160Z,98463.59
2022-07-28T07:22:00.562Z,98455.06
2022-07-28T07:24:34.354Z,98445.31
2022-07-28T07:27:07.381Z,98440.16
2022-07-28T07:29:40.385Z,98441.00
2022-07-28T07:32:10.690Z,98440.38
2022-07-28T07:34:46.380Z,98439.16
2022-07-28T07:37:14.649Z,98434.56
2022-07-28T07:39:41.901Z,98443.47
2022-07-28T07:42:15.356Z,98443.00
2022-07-28T07:44:42.205Z,98439.44
2022-07-28T07:47:24.550Z,98436.13
2022-07-28T07:49:58.379Z,98423.63
2022-07-28T07:52:31.403Z,98422.16
2022-07-28T07:55:04.367Z,98422.75
2022-07-28T07:57:31.377Z,98424.16
2022-07-28T08:00:04.383Z,98423.47
2022-07-28T08:02:31.149Z,98422.84
2022-07-28T08:05:04.537Z,98422.00
2022-07-28T08:07:31.351Z,98412.84
2022-07-28T08:10:05.580Z,98413.00
2022-07-28T08:12:39.517Z,98419.19
2022-07-28T08:15:13.360Z,98422.66
2022-07-28T08:17:40.150Z,98422.78
2022-07-28T08:20:14.388Z,98417.56
2022-07-28T08:22:57.586Z,98416.47
2022-07-28T08:25:31.602Z,98415.56
2022-07-28T08:27:58.326Z,98411.16
2022-07-28T08:30:33.112Z,98417.31
2022-07-28T08:33:00.490Z,98407.28
2022-07-28T08:35:35.613Z,98411.19
2022-07-28T08:38:04.824Z,98407.78
2022-07-28T08:40:32.649Z,98408.34
2022-07-28T08:43:18.383Z,98401.00
2022-07-28T08:45:47.976Z,98395.28
2022-07-28T08:48:24.352Z,98400.38
2022-07-28T08:50:52.428Z,98400.69
2022-07-28T08:53:28.360Z,98396.00
2022-07-28T08:55:56.482Z,98398.03
2022-07-28T08:58:30.362Z,98393.00
2022-07-28T09:00:57.645Z,98392.28
2022-07-28T09:03:24.867Z,98398.44
2022-07-28T09:05:59.513Z,98405.84
2022-07-28T09:08:26.697Z,98394.97
2022-07-28T09:11:06.372Z,98392.16
2022-07-28T09:13:39.481Z,98391.97
2022-07-28T09:16:13.367Z,98388.94
2022-07-28T09:18:40.257Z,98385.91
2022-07-28T09:21:07.243Z,98386.84
2022-07-28T09:23:51.397Z,98384.00
2022-07-28T09:26:18.230Z,98374.03
2022-07-28T09:28:56.453Z,98370.38
2022-07-28T09:31:25.319Z,98377.91
2022-07-28T09:34:04.386Z,98366.28
2022-07-28T09:36:47.382Z,98366.75
2022-07-28T09:39:34.851Z,98374.03
2022-07-28T09:42:09.369Z,98368.59
2022-07-28T09:44:36.147Z,98362.25
2022-07-28T09:47:31.539Z,98368.09
2022-07-28T09:49:58.885Z,98363.63
2022-07-28T09:52:31.042Z,98351.56
2022-07-28T09:55:08.371Z,98350.88
2022-07-28T09:57:37.016Z,98345.75
2022-07-28T10:00:20.417Z,98344.81
2022-07-28T10:02:50.028Z,98341.22
2022-07-28T10:05:24.353Z,98336.47
2022-07-28T10:07:51.135Z,98330.00
2022-07-28T10:10:38.369Z,98327.13
2022-07-28T10:13:06.298Z,98323.03
2022-07-28T10:15:58.414Z,98326.63
2022-07-28T10:18:25.194Z,98324.50
2022-07-28T10:20:58.355Z,98323.16
2022-07-28T10:23:31.353Z,98314.16
2022-07-28T10:25:59.293Z,98302.13
2022-07-28T10:28:33.395Z,98299.81
2022-07-28T10:31:03.112Z,98307.28
2022-07-28T10:33:39.333Z,98298.94
2022-07-28T10:36:07.345Z,98302.22
2022-07-28T10:38:35.826Z,98298.78
2022-07-28T10:41:10.348Z,98304.00
2022-07-28T10:43:45.621Z,98295.94
2022-07-28T10:46:16.397Z,98298.47
2022-07-28T10:48:51.405Z,98296.41
2022-07-28T10:51:28.546Z,98291.59
2022-07-28T10:54:24.901Z,98287.59
2022-07-28T10:57:04.701Z,98277.94
2022-07-28T11:00:20.851Z,98282.59
2022-07-28T11:03:01.071Z,98275.31
2022-07-28T11:05:38.331Z,98266.69
2022-07-28T11:08:34.372Z,98262.69
2022-07-28T11:11:21.344Z,98261.38
2022-07-28T11:13:54.353Z,98264.75
2022-07-28T11:16:31.790Z,98268.34
2022-07-28T11:19:04.839Z,98266.47
2022-07-28T11:21:43.626Z,98265.75
2022-07-28T11:24:10.529Z,98263.06
2022-07-28T11:26:51.375Z,98254.66
2022-07-28T11:29:18.742Z,98260.91
2022-07-28T11:31:55.471Z,98260.91
2022-07-28T11:34:24.964Z,98264.13
2022-07-28T11:37:15.182Z,98264.13
2022-07-28T11:39:49.360Z,98257.41
2022-07-28T11:42:31.176Z,98255.31
2022-07-28T11:45:39.273Z,98255.06
2022-07-28T11:48:18.752Z,98243.59
2022-07-28T11:51:10.391Z,98261.13
2022-07-28T11:53:52.409Z,98246.16
2022-07-28T11:56:25.157Z,98244.00
2022-07-28T11:59:09.332Z,98234.72
2022-07-28T12:01:38.193Z,98242.97
2022-07-28T12:04:21.365Z,98241.13
2022-07-28T12:06:57.340Z,98226.69
2022-07-28T12:09:41.887Z,98240.81
2022-07-28T12:12:15.350Z,98231.28
2022-07-28T12:14:43.434Z,98228.34
2022-07-28T12:17:17.334Z,98231.09
2022-07-28T12:19:44.876Z,98226.25
2022-07-28T12:22:15.562Z,98220.78
2022-07-28T12:24:49.340Z,98218.91
2022-07-28T12:27:24.992Z,98220.56
2022-07-28T12:29:57.974Z,98217.03
2022-07-28T12:32:41.362Z,98212.13
2022-07-28T12:35:08.449Z,98211.34
2022-07-28T12:37:41.348Z,98208.66
2022-07-28T12:40:10.655Z,98205.69
2022-07-28T12:42:44.338Z,98202.13
2022-07-28T12:45:12.530Z,98204.59
2022-07-28T12:47:46.337Z,98190.97
2022-07-28T12:50:17.271Z,98200.25
2022-07-28T12:53:07.500Z,98191.25
2022-07-28T12:55:41.326Z,98193.19
2022-07-28T12:58:27.498Z,98199.75
2022-07-28T13:00:55.147Z,98191.53
2022-07-28T13:03:33.332Z,98188.59
2022-07-28T13:06:10.271Z,98185.03
2022-07-28T13:09:01.480Z,98176.81
2022-07-28T13:11:47.182Z,98181.75
2022-07-28T13:14:50.342Z,98177.38
2022-07-28T13:17:18.334Z,98174.94
2022-07-28T13:19:52.353Z,98174.63
2022-07-28T13:22:36.343Z,98178.19
2022-07-28T13:25:03.391Z,98171.38
2022-07-28T13:27:39.341Z,98165.66
2022-07-28T13:30:07.762Z,98166.19
2022-07-28T13:32:41.630Z,98169.19
2022-07-28T13:35:19.243Z,98153.38
2022-07-28T13:37:48.516Z,98167.84
2022-07-28T13:40:22.369Z,98164.59
2022-07-28T13:42:53.115Z,98159.34
2022-07-28T13:45:30.314Z,98142.50
2022-07-28T13:47:57.232Z,98150.41
2022-07-28T13:50:30.486Z,98149.03
2022-07-28T13:52:57.413Z,98147.38
2022-07-28T13:55:32.320Z,98151.19
2022-07-28T13:57:59.024Z,98144.94
2022-07-28T14:00:33.411Z,98140.03
2022-07-28T14:03:00.298Z,98137.31
2022-07-28T14:05:33.767Z,98137.84
2022-07-28T14:08:01.487Z,98135.66
2022-07-28T14:10:42.318Z,98129.94
2022-07-28T14:13:22.213Z,98130.19
2022-07-28T14:16:02.110Z,98131.03
2022-07-28T14:18:29.421Z,98127.22
2022-07-28T14:20:56.187Z,98128.31
2022-07-28T14:23:29.337Z,98132.66
2022-07-28T14:26:18.342Z,98132.09
2022-07-28T14:28:49.344Z,98132.41
2022-07-28T14:31:18.070Z,98119.56
2022-07-28T14:33:54.729Z,98120.94
2022-07-28T14:36:21.917Z,98123.94
2022-07-28T14:38:55.347Z,98125.59
2022-07-28T14:41:22.309Z,98128.03
2022-07-28T14:43:49.047Z,98125.28
2022-07-28T14:46:29.504Z,98131.03
2022-07-28T14:48:57.089Z,98125.31
2022-07-28T14:51:30.331Z,98120.94
2022-07-28T14:53:57.931Z,98123.41
2022-07-28T14:56:32.380Z,98114.69
2022-07-28T14:58:59.136Z,98121.75
2022-07-28T15:01:26.927Z,98121.75
2022-07-28T15:04:00.316Z,98120.13
2022-07-28T15:06:33.315Z,98119.03
2022-07-28T15:09:08.541Z,98116.31
2022-07-28T15:11:51.330Z,98105.41
2022-07-28T15:14:24.902Z,98114.38
2022-07-28T15:16:59.317Z,98104.31
2022-07-28T15:19:26.255Z,98097.22
2022-07-28T15:21:59.334Z,98095.59
2022-07-28T15:24:37.335Z,98096.13
2022-07-28T15:27:04.247Z,98096.13
2022-07-28T15:29:37.354Z,98097.50
2022-07-28T15:32:05.222Z,98090.97
2022-07-28T15:34:39.397Z,98089.59
2022-07-28T15:37:06.351Z,98089.31
2022-07-28T15:39:44.768Z,98081.69
2022-07-28T15:42:12.129Z,98084.66
2022-07-28T15:44:45.338Z,98087.38
2022-07-28T15:47:12.118Z,98087.91
2022-07-28T15:49:45.340Z,98082.72
2022-07-28T15:52:14.053Z,98079.47
2022-07-28T15:54:40.855Z,98076.47
2022-07-28T15:57:14.389Z,98077.50
2022-07-28T15:59:49.212Z,98071.53
2022-07-28T16:02:23.433Z,98072.06
2022-07-28T16:04:53.851Z,98068.25
2022-07-28T16:07:31.333Z,98067.72
2022-07-28T16:10:04.373Z,98066.88
2022-07-28T16:12:44.333Z,98068.81
2022-07-28T16:15:17.346Z,98066.91
2022-07-28T16:17:51.583Z,98063.63
2022-07-28T16:20:18.731Z,98061.72
2022-07-28T16:22:52.347Z,98057.66
2022-07-28T16:25:20.737Z,98068.25
2022-07-28T16:27:54.344Z,98053.53
2022-07-28T16:30:21.172Z,98052.47
2022-07-28T16:32:54.407Z,98051.94
2022-07-28T16:35:21.249Z,98050.38
2022-07-28T16:37:57.603Z,98047.34
2022-07-28T16:40:30.332Z,98050.03
2022-07-28T16:43:01.344Z,98053.03
2022-07-28T16:45:35.352Z,98044.84
2022-07-28T16:48:09.340Z,98053.56
2022-07-28T16:50:36.142Z,98047.56
2022-07-28T16:53:15.373Z,98053.56
2022-07-28T16:55:49.328Z,98047.28
2022-07-28T16:58:18.071Z,98057.38
2022-07-28T17:00:44.728Z,98060.09
2022-07-28T17:03:18.311Z,98053.03
2022-07-28T17:05:45.372Z,98051.69
2022-07-28T17:08:33.324Z,98051.13
2022-07-28T17:11:06.506Z,98048.66
2022-07-28T17:13:44.812Z,98044.31
2022-07-28T17:16:12.134Z,98055.22
2022-07-28T17:18:45.343Z,98055.78
2022-07-28T17:21:13.296Z,98049.81
2022-07-28T17:23:46.303Z,98048.16
2022-07-28T17:29:06.322Z,98056.06
2022-07-28T17:31:33.885Z,98058.50
2022-07-28T17:34:07.334Z,98068.28
2022-07-28T17:36:35.472Z,98067.19
2022-07-28T17:39:09.339Z,98076.94
2022-07-28T17:41:36.187Z,98073.09
2022-07-28T17:44:09.325Z,98073.84
2022-07-28T17:46:36.177Z,98076.22
2022-07-28T17:49:10.374Z,98069.69
2022-07-28T17:51:44.330Z,98071.25
2022-07-28T17:54:14.392Z,98075.59
2022-07-28T17:56:41.786Z,98073.16
2022-07-28T17:59:15.321Z,98074.50
2022-07-28T18:01:45.363Z,98074.47
2022-07-28T18:04:19.891Z,98079.63
2022-07-28T18:06:46.885Z,98085.84
2022-07-28T18:09:14.338Z,98089.09
2022-07-28T18:11:57.653Z,98091.75
2022-07-28T18:14:31.837Z,98092.25
2022-07-28T18:17:05.339Z,98098.50
2022-07-28T18:19:42.147Z,98095.47
2022-07-28T18:22:11.731Z,98094.63
2022-07-28T18:24:45.492Z,98090.25
2022-07-28T18:27:19.309Z,98089.13
2022-07-28T18:29:47.005Z,98092.34
2022-07-28T18:32:24.346Z,98088.28
2022-07-28T18:34:51.266Z,98092.00
2022-07-28T18:37:24.495Z,98090.34
2022-07-28T18:39:51.418Z,98088.41
2022-07-28T18:42:24.494Z,98087.00
2022-07-28T18:44:51.266Z,98094.28
2022-07-28T18:47:24.333Z,98095.09
2022-07-28T18:49:51.425Z,98104.00
2022-07-28T18:52:25.308Z,98098.75
2022-07-28T18:54:52.964Z,98112.84
2022-07-28T18:57:26.315Z,98115.50
2022-07-28T18:59:53.017Z,98119.00
2022-07-28T19:02:26.739Z,98113.25
2022-07-28T19:04:55.385Z,98119.75
2022-07-28T19:07:28.695Z,98119.44
2022-07-28T19:09:55.477Z,98123.50
2022-07-28T19:12:37.297Z,98126.97
2022-07-28T19:15:17.320Z,98125.59
2022-07-28T19:17:44.040Z,98129.88
2022-07-28T19:20:18.288Z,98125.50
2022-07-28T19:22:45.109Z,98132.50
2022-07-28T19:25:12.004Z,98132.19
2022-07-28T19:27:45.313Z,98134.81
2022-07-28T19:30:19.302Z,98138.31
2022-07-28T19:32:52.301Z,98134.75
2022-07-28T19:35:25.315Z,98139.84
2022-07-28T19:37:58.306Z,98143.06
2022-07-28T19:40:25.553Z,98140.84
2022-07-28T19:43:00.464Z,98141.59
2022-07-28T19:45:33.320Z,98144.81
2022-07-28T19:48:00.942Z,98143.09
2022-07-28T19:50:34.323Z,98149.59
2022-07-28T19:53:01.775Z,98149.88
2022-07-28T19:55:38.308Z,98147.66
2022-07-28T19:58:06.215Z,98156.25
2022-07-28T20:00:40.343Z,98162.22
2022-07-28T20:04:03.693Z,98162.69
2022-07-28T20:06:02.424Z,98161.31
2022-07-28T20:08:35.491Z,98166.72
2022-07-28T20:11:15.309Z,98166.41
2022-07-28T20:13:49.532Z,98160.19
2022-07-28T20:16:23.358Z,98164.69
2022-07-28T20:18:51.038Z,98165.75
2022-07-28T20:21:26.557Z,98156.47
2022-07-28T20:23:57.262Z,98151.31
2022-07-28T20:26:34.491Z,98152.63
2022-07-28T20:29:01.830Z,98154.44
2022-07-28T20:31:29.071Z,98158.19
2022-07-28T20:34:03.311Z,98159.78
2022-07-28T20:36:36.325Z,98160.84
2022-07-28T20:39:15.731Z,98166.50
2022-07-28T20:41:56.296Z,98167.84
2022-07-28T20:44:30.612Z,98156.44
2022-07-28T20:47:08.299Z,98164.19
2022-07-28T20:49:35.157Z,98161.97
2022-07-28T20:52:08.293Z,98163.88
2022-07-28T20:54:34.997Z,98160.81
2022-07-28T20:57:08.293Z,98151.03
2022-07-28T20:59:34.921Z,98152.38
2022-07-28T21:02:02.185Z,98148.84
2022-07-28T21:04:35.358Z,98150.41
2022-07-28T21:07:04.272Z,98149.31
2022-07-28T21:09:37.305Z,98147.13
2022-07-28T21:12:18.293Z,98151.94
2022-07-28T21:14:58.289Z,98147.25
2022-07-28T21:17:31.291Z,98142.66
2022-07-28T21:20:04.303Z,98151.63
2022-07-28T21:22:31.120Z,98149.16
2022-07-28T21:25:05.308Z,98156.72
2022-07-28T21:27:58.290Z,98150.16
2022-07-28T21:30:27.655Z,98146.94
2022-07-28T21:33:01.373Z,98152.59
2022-07-28T21:35:28.355Z,98153.44
2022-07-28T21:38:02.321Z,98152.25
2022-07-28T21:40:29.451Z,98154.38
2022-07-28T21:43:02.273Z,98152.25
2022-07-28T21:45:29.049Z,98165.47
2022-07-28T21:48:02.456Z,98163.59
2022-07-28T21:50:29.237Z,98164.06
2022-07-28T21:53:02.302Z,98169.00
2022-07-28T21:55:29.119Z,98169.81
2022-07-28T21:58:02.293Z,98170.63
2022-07-28T22:00:36.355Z,98172.75
2022-07-28T22:03:03.400Z,98170.06
2022-07-28T22:05:36.474Z,98169.47
2022-07-28T22:08:10.355Z,98180.81
2022-07-28T22:10:43.511Z,98180.81
2022-07-28T22:13:17.459Z,98179.16
2022-07-28T22:15:45.028Z,98182.34
2022-07-28T22:18:18.283Z,98182.34
2022-07-28T22:20:47.351Z,98189.66
2022-07-28T22:23:29.499Z,98194.25
2022-07-28T22:25:56.982Z,98190.38
2022-07-28T22:28:30.771Z,98199.81
2022-07-28T22:31:08.645Z,98197.34
2022-07-28T22:33:44.288Z,98210.31
2022-07-28T22:36:11.673Z,98207.00
2022-07-28T22:38:45.297Z,98209.97
2022-07-28T22:41:18.290Z,98205.84
2022-07-28T22:43:45.051Z,98206.59
2022-07-28T22:46:18.320Z,98205.41
2022-07-28T22:48:45.156Z,98213.97
2022-07-28T22:51:20.295Z,98211.78
2022-07-28T22:53:47.633Z,98211.16
2022-07-28T22:56:21.290Z,98221.66
2022-07-28T22:58:48.188Z,98224.03
2022-07-28T23:01:21.356Z,98215.91
2022-07-28T23:03:48.498Z,98227.44
2022-07-28T23:06:22.265Z,98229.56
2022-07-28T23:08:49.061Z,98235.19
2022-07-28T23:11:29.300Z,98236.50
2022-07-28T23:14:02.489Z,98240.28
2022-07-28T23:16:36.326Z,98247.78
2022-07-28T23:19:03.084Z,98243.69
2022-07-28T23:21:37.292Z,98240.63
2022-07-28T23:24:11.827Z,98224.63
2022-07-28T23:26:38.931Z,98236.19
2022-07-28T23:29:12.288Z,98234.53
2022-07-28T23:31:39.082Z,98236.41
2022-07-28T23:34:05.861Z,98246.41
2022-07-28T23:36:39.281Z,98247.47
2022-07-28T23:39:12.295Z,98244.66
2022-07-28T23:41:39.043Z,98245.13
2022-07-28T23:44:05.798Z,98250.41
2022-07-28T23:46:39.321Z,98245.00
2022-07-28T23:49:07.309Z,98256.06
2022-07-28T23:51:47.403Z,98258.44
2022-07-28T23:54:15.777Z,98261.72
2022-07-28T23:56:50.448Z,98259.81
2022-07-28T23:59:17.185Z,98264.19
